sensor_id;sensor_type;location;lat;lon;timestamp;P1;durP1;ratioP1;P2;durP2;ratioP2
51438;SDS011;38816;51.142;-0.974;2023-05-29T00:00:25;35.08;;;32.05;;
51438;SDS011;38816;51.142;-0.974;2023-05-29T00:02:51;35.13;;;31.70;;
51438;SDS011;38816;51.142;-0.974;2023-05-29T00:05:17;35.85;;;32.65;;
51438;SDS011;38816;51.142;-0.974;2023-05-29T00:07:43;35.53;;;32.35;;
51438;SDS011;38816;51.142;-0.974;2023-05-29T00:10:09;35.42;;;32.13;;
51438;SDS011;38816;51.142;-0.974;2023-05-29T00:12:35;35.58;;;32.03;;
51438;SDS011;38816;51.142;-0.974;2023-05-29T00:15:02;36.42;;;32.88;;
51438;SDS011;38816;51.142;-0.974;2023-05-29T00:17:31;35.10;;;31.92;;
51438;SDS011;38816;51.142;-0.974;2023-05-29T00:19:59;38.72;;;34.58;;
51438;SDS011;38816;51.142;-0.974;2023-05-29T00:22:26;35.28;;;32.35;;
51438;SDS011;38816;51.142;-0.974;2023-05-29T00:24:52;40.00;;;36.35;;
51438;SDS011;38816;51.142;-0.974;2023-05-29T00:27:18;39.05;;;35.20;;
51438;SDS011;38816;51.142;-0.974;2023-05-29T00:29:43;38.03;;;34.53;;
51438;SDS011;38816;51.142;-0.974;2023-05-29T00:32:09;39.28;;;35.28;;
51438;SDS011;38816;51.142;-0.974;2023-05-29T00:34:34;38.00;;;34.72;;
51438;SDS011;38816;51.142;-0.974;2023-05-29T00:37:00;38.80;;;35.75;;
51438;SDS011;38816;51.142;-0.974;2023-05-29T00:39:26;38.63;;;35.35;;
51438;SDS011;38816;51.142;-0.974;2023-05-29T00:41:52;38.55;;;34.92;;
51438;SDS011;38816;51.142;-0.974;2023-05-29T00:44:17;40.17;;;37.08;;
51438;SDS011;38816;51.142;-0.974;2023-05-29T00:46:43;40.13;;;36.47;;
51438;SDS011;38816;51.142;-0.974;2023-05-29T00:49:09;40.63;;;36.63;;
51438;SDS011;38816;51.142;-0.974;2023-05-29T00:51:36;40.75;;;37.15;;
51438;SDS011;38816;51.142;-0.974;2023-05-29T00:54:02;40.97;;;37.20;;
51438;SDS011;38816;51.142;-0.974;2023-05-29T00:56:31;41.15;;;37.65;;
51438;SDS011;38816;51.142;-0.974;2023-05-29T00:58:57;41.85;;;38.53;;
51438;SDS011;38816;51.142;-0.974;2023-05-29T01:01:23;40.88;;;37.30;;
51438;SDS011;38816;51.142;-0.974;2023-05-29T01:03:49;40.97;;;36.97;;
51438;SDS011;38816;51.142;-0.974;2023-05-29T01:06:15;41.28;;;37.35;;
51438;SDS011;38816;51.142;-0.974;2023-05-29T01:08:40;42.80;;;38.47;;
51438;SDS011;38816;51.142;-0.974;2023-05-29T01:11:12;43.15;;;39.10;;
51438;SDS011;38816;51.142;-0.974;2023-05-29T01:13:45;40.10;;;36.80;;
51438;SDS011;38816;51.142;-0.974;2023-05-29T01:24:55;48.00;;;43.38;;
51438;SDS011;38816;51.142;-0.974;2023-05-29T01:27:29;43.70;;;39.83;;
51438;SDS011;38816;51.142;-0.974;2023-05-29T01:29:55;43.55;;;40.05;;
51438;SDS011;38816;51.142;-0.974;2023-05-29T01:32:23;45.58;;;41.85;;
51438;SDS011;38816;51.142;-0.974;2023-05-29T01:34:50;45.00;;;41.28;;
51438;SDS011;38816;51.142;-0.974;2023-05-29T01:37:16;46.80;;;42.83;;
51438;SDS011;38816;51.142;-0.974;2023-05-29T01:39:41;46.30;;;41.90;;
51438;SDS011;38816;51.142;-0.974;2023-05-29T01:42:07;43.17;;;39.28;;
51438;SDS011;38816;51.142;-0.974;2023-05-29T01:44:33;45.38;;;41.03;;
51438;SDS011;38816;51.142;-0.974;2023-05-29T01:46:59;44.15;;;40.63;;
51438;SDS011;38816;51.142;-0.974;2023-05-29T01:49:25;46.35;;;42.65;;
51438;SDS011;38816;51.142;-0.974;2023-05-29T01:51:52;46.05;;;42.05;;
51438;SDS011;38816;51.142;-0.974;2023-05-29T01:54:18;47.10;;;42.90;;
51438;SDS011;38816;51.142;-0.974;2023-05-29T01:56:44;44.83;;;41.25;;
51438;SDS011;38816;51.142;-0.974;2023-05-29T01:59:10;45.42;;;41.50;;
51438;SDS011;38816;51.142;-0.974;2023-05-29T02:01:40;44.80;;;40.80;;
51438;SDS011;38816;51.142;-0.974;2023-05-29T02:04:06;43.50;;;39.78;;
51438;SDS011;38816;51.142;-0.974;2023-05-29T02:06:32;45.33;;;41.42;;
51438;SDS011;38816;51.142;-0.974;2023-05-29T02:08:58;43.95;;;39.90;;
51438;SDS011;38816;51.142;-0.974;2023-05-29T02:11:23;45.40;;;41.50;;
51438;SDS011;38816;51.142;-0.974;2023-05-29T02:13:50;46.72;;;42.70;;
51438;SDS011;38816;51.142;-0.974;2023-05-29T02:16:16;45.45;;;41.55;;
51438;SDS011;38816;51.142;-0.974;2023-05-29T02:18:42;47.35;;;43.35;;
51438;SDS011;38816;51.142;-0.974;2023-05-29T02:21:08;45.85;;;41.83;;
51438;SDS011;38816;51.142;-0.974;2023-05-29T02:23:34;46.78;;;42.88;;
51438;SDS011;38816;51.142;-0.974;2023-05-29T02:25:59;46.08;;;42.25;;
51438;SDS011;38816;51.142;-0.974;2023-05-29T02:28:25;49.70;;;45.13;;
51438;SDS011;38816;51.142;-0.974;2023-05-29T02:30:50;48.42;;;44.72;;
51438;SDS011;38816;51.142;-0.974;2023-05-29T02:33:16;48.22;;;44.13;;
51438;SDS011;38816;51.142;-0.974;2023-05-29T02:35:41;48.75;;;44.55;;
51438;SDS011;38816;51.142;-0.974;2023-05-29T02:38:06;49.28;;;44.90;;
51438;SDS011;38816;51.142;-0.974;2023-05-29T02:40:32;49.10;;;45.03;;
51438;SDS011;38816;51.142;-0.974;2023-05-29T02:42:57;47.80;;;43.83;;
51438;SDS011;38816;51.142;-0.974;2023-05-29T02:45:23;51.33;;;46.92;;
51438;SDS011;38816;51.142;-0.974;2023-05-29T02:47:48;49.72;;;45.63;;
51438;SDS011;38816;51.142;-0.974;2023-05-29T02:50:13;49.63;;;45.40;;
51438;SDS011;38816;51.142;-0.974;2023-05-29T02:52:39;50.25;;;45.80;;
51438;SDS011;38816;51.142;-0.974;2023-05-29T02:55:05;48.30;;;44.35;;
51438;SDS011;38816;51.142;-0.974;2023-05-29T02:57:31;51.05;;;46.47;;
51438;SDS011;38816;51.142;-0.974;2023-05-29T02:59:57;49.13;;;45.05;;
51438;SDS011;38816;51.142;-0.974;2023-05-29T03:02:22;49.38;;;45.55;;
51438;SDS011;38816;51.142;-0.974;2023-05-29T03:04:48;50.50;;;46.22;;
51438;SDS011;38816;51.142;-0.974;2023-05-29T03:07:17;48.95;;;44.58;;
51438;SDS011;38816;51.142;-0.974;2023-05-29T03:09:43;51.20;;;46.22;;
51438;SDS011;38816;51.142;-0.974;2023-05-29T03:12:08;50.25;;;45.50;;
51438;SDS011;38816;51.142;-0.974;2023-05-29T03:14:34;49.38;;;45.08;;
51438;SDS011;38816;51.142;-0.974;2023-05-29T03:17:01;49.17;;;44.70;;
51438;SDS011;38816;51.142;-0.974;2023-05-29T03:19:28;50.13;;;45.63;;
51438;SDS011;38816;51.142;-0.974;2023-05-29T03:21:54;49.13;;;44.75;;
51438;SDS011;38816;51.142;-0.974;2023-05-29T03:24:20;49.45;;;44.90;;
51438;SDS011;38816;51.142;-0.974;2023-05-29T03:26:45;49.22;;;45.08;;
51438;SDS011;38816;51.142;-0.974;2023-05-29T03:29:11;50.15;;;45.65;;
51438;SDS011;38816;51.142;-0.974;2023-05-29T03:31:36;49.60;;;45.30;;
51438;SDS011;38816;51.142;-0.974;2023-05-29T03:34:02;50.05;;;45.47;;
51438;SDS011;38816;51.142;-0.974;2023-05-29T03:36:27;48.17;;;44.13;;
51438;SDS011;38816;51.142;-0.974;2023-05-29T03:38:53;50.67;;;46.63;;
51438;SDS011;38816;51.142;-0.974;2023-05-29T03:41:18;51.30;;;47.22;;
51438;SDS011;38816;51.142;-0.974;2023-05-29T03:43:44;51.88;;;47.47;;
51438;SDS011;38816;51.142;-0.974;2023-05-29T03:46:09;52.63;;;48.28;;
51438;SDS011;38816;51.142;-0.974;2023-05-29T03:48:35;52.17;;;47.85;;
51438;SDS011;38816;51.142;-0.974;2023-05-29T03:51:00;50.20;;;45.65;;
51438;SDS011;38816;51.142;-0.974;2023-05-29T03:53:26;53.92;;;49.28;;
51438;SDS011;38816;51.142;-0.974;2023-05-29T03:55:51;55.05;;;50.35;;
51438;SDS011;38816;51.142;-0.974;2023-05-29T03:58:16;52.72;;;48.58;;
51438;SDS011;38816;51.142;-0.974;2023-05-29T04:04:04;58.13;;;52.47;;
51438;SDS011;38816;51.142;-0.974;2023-05-29T04:06:29;52.75;;;48.03;;
51438;SDS011;38816;51.142;-0.974;2023-05-29T04:08:55;53.45;;;48.90;;
51438;SDS011;38816;51.142;-0.974;2023-05-29T04:11:20;57.55;;;52.03;;
51438;SDS011;38816;51.142;-0.974;2023-05-29T04:13:47;53.28;;;49.08;;
51438;SDS011;38816;51.142;-0.974;2023-05-29T04:16:13;50.90;;;46.55;;
51438;SDS011;38816;51.142;-0.974;2023-05-29T04:18:39;49.25;;;45.25;;
51438;SDS011;38816;51.142;-0.974;2023-05-29T04:21:05;52.47;;;47.85;;
51438;SDS011;38816;51.142;-0.974;2023-05-29T04:23:31;54.00;;;49.67;;
51438;SDS011;38816;51.142;-0.974;2023-05-29T04:25:56;53.75;;;49.40;;
51438;SDS011;38816;51.142;-0.974;2023-05-29T04:28:22;55.67;;;51.22;;
51438;SDS011;38816;51.142;-0.974;2023-05-29T04:30:48;53.85;;;49.42;;
51438;SDS011;38816;51.142;-0.974;2023-05-29T04:33:14;54.60;;;50.08;;
51438;SDS011;38816;51.142;-0.974;2023-05-29T04:35:40;54.70;;;49.97;;
51438;SDS011;38816;51.142;-0.974;2023-05-29T04:38:08;52.42;;;47.70;;
51438;SDS011;38816;51.142;-0.974;2023-05-29T04:40:34;53.70;;;48.80;;
51438;SDS011;38816;51.142;-0.974;2023-05-29T04:43:01;55.58;;;50.17;;
51438;SDS011;38816;51.142;-0.974;2023-05-29T04:45:27;52.38;;;47.88;;
51438;SDS011;38816;51.142;-0.974;2023-05-29T04:47:53;49.90;;;45.60;;
51438;SDS011;38816;51.142;-0.974;2023-05-29T04:50:20;50.78;;;45.65;;
51438;SDS011;38816;51.142;-0.974;2023-05-29T04:52:45;50.72;;;46.55;;
51438;SDS011;38816;51.142;-0.974;2023-05-29T04:55:11;50.08;;;45.58;;
51438;SDS011;38816;51.142;-0.974;2023-05-29T04:57:36;48.55;;;44.25;;
51438;SDS011;38816;51.142;-0.974;2023-05-29T05:00:03;47.33;;;43.25;;
51438;SDS011;38816;51.142;-0.974;2023-05-29T05:02:33;49.80;;;45.38;;
51438;SDS011;38816;51.142;-0.974;2023-05-29T05:04:58;47.10;;;42.63;;
51438;SDS011;38816;51.142;-0.974;2023-05-29T05:07:24;46.47;;;42.08;;
51438;SDS011;38816;51.142;-0.974;2023-05-29T05:09:49;46.25;;;42.20;;
51438;SDS011;38816;51.142;-0.974;2023-05-29T05:12:15;48.60;;;44.00;;
51438;SDS011;38816;51.142;-0.974;2023-05-29T05:14:40;46.55;;;42.47;;
51438;SDS011;38816;51.142;-0.974;2023-05-29T05:17:06;44.40;;;40.45;;
51438;SDS011;38816;51.142;-0.974;2023-05-29T05:19:31;45.70;;;41.75;;
51438;SDS011;38816;51.142;-0.974;2023-05-29T05:21:57;43.60;;;39.53;;
51438;SDS011;38816;51.142;-0.974;2023-05-29T05:24:22;43.55;;;39.95;;
51438;SDS011;38816;51.142;-0.974;2023-05-29T05:26:48;44.28;;;39.53;;
51438;SDS011;38816;51.142;-0.974;2023-05-29T05:29:13;42.47;;;38.60;;
51438;SDS011;38816;51.142;-0.974;2023-05-29T05:31:38;43.47;;;39.25;;
51438;SDS011;38816;51.142;-0.974;2023-05-29T05:34:04;40.60;;;37.15;;
51438;SDS011;38816;51.142;-0.974;2023-05-29T05:36:29;41.85;;;38.03;;
51438;SDS011;38816;51.142;-0.974;2023-05-29T05:38:56;41.28;;;37.63;;
51438;SDS011;38816;51.142;-0.974;2023-05-29T05:41:21;39.17;;;35.75;;
51438;SDS011;38816;51.142;-0.974;2023-05-29T05:43:47;39.63;;;36.10;;
51438;SDS011;38816;51.142;-0.974;2023-05-29T05:46:12;37.35;;;33.88;;
51438;SDS011;38816;51.142;-0.974;2023-05-29T05:48:39;38.40;;;35.03;;
51438;SDS011;38816;51.142;-0.974;2023-05-29T05:51:05;37.38;;;34.13;;
51438;SDS011;38816;51.142;-0.974;2023-05-29T05:53:30;38.58;;;34.65;;
51438;SDS011;38816;51.142;-0.974;2023-05-29T05:55:56;37.47;;;33.92;;
51438;SDS011;38816;51.142;-0.974;2023-05-29T05:58:21;33.53;;;30.20;;
51438;SDS011;38816;51.142;-0.974;2023-05-29T06:00:47;35.97;;;32.70;;
51438;SDS011;38816;51.142;-0.974;2023-05-29T06:03:12;35.45;;;32.03;;
51438;SDS011;38816;51.142;-0.974;2023-05-29T06:05:38;33.15;;;30.13;;
51438;SDS011;38816;51.142;-0.974;2023-05-29T06:08:05;34.08;;;30.58;;
51438;SDS011;38816;51.142;-0.974;2023-05-29T06:10:33;29.52;;;27.20;;
51438;SDS011;38816;51.142;-0.974;2023-05-29T06:12:58;31.17;;;28.25;;
51438;SDS011;38816;51.142;-0.974;2023-05-29T06:15:24;30.80;;;27.67;;
51438;SDS011;38816;51.142;-0.974;2023-05-29T06:17:49;29.65;;;25.67;;
51438;SDS011;38816;51.142;-0.974;2023-05-29T06:20:16;27.60;;;24.05;;
51438;SDS011;38816;51.142;-0.974;2023-05-29T06:22:42;27.52;;;24.98;;
51438;SDS011;38816;51.142;-0.974;2023-05-29T06:25:08;27.48;;;24.45;;
51438;SDS011;38816;51.142;-0.974;2023-05-29T06:27:34;26.85;;;24.25;;
51438;SDS011;38816;51.142;-0.974;2023-05-29T06:30:00;23.58;;;21.40;;
51438;SDS011;38816;51.142;-0.974;2023-05-29T06:32:25;24.55;;;22.33;;
51438;SDS011;38816;51.142;-0.974;2023-05-29T06:34:53;26.80;;;23.20;;
51438;SDS011;38816;51.142;-0.974;2023-05-29T06:37:18;25.50;;;21.70;;
51438;SDS011;38816;51.142;-0.974;2023-05-29T06:39:44;23.00;;;20.98;;
51438;SDS011;38816;51.142;-0.974;2023-05-29T06:42:10;22.33;;;20.15;;
51438;SDS011;38816;51.142;-0.974;2023-05-29T06:44:35;21.00;;;19.10;;
51438;SDS011;38816;51.142;-0.974;2023-05-29T06:47:01;21.02;;;18.77;;
51438;SDS011;38816;51.142;-0.974;2023-05-29T06:49:26;19.85;;;17.95;;
51438;SDS011;38816;51.142;-0.974;2023-05-29T06:51:52;20.00;;;18.13;;
51438;SDS011;38816;51.142;-0.974;2023-05-29T06:54:17;32.85;;;18.98;;
51438;SDS011;38816;51.142;-0.974;2023-05-29T06:56:42;20.63;;;18.48;;
51438;SDS011;38816;51.142;-0.974;2023-05-29T06:59:08;19.13;;;17.20;;
51438;SDS011;38816;51.142;-0.974;2023-05-29T07:01:33;22.58;;;17.58;;
51438;SDS011;38816;51.142;-0.974;2023-05-29T07:03:59;18.15;;;16.42;;
51438;SDS011;38816;51.142;-0.974;2023-05-29T07:06:25;17.88;;;16.17;;
51438;SDS011;38816;51.142;-0.974;2023-05-29T07:08:50;20.38;;;15.80;;
51438;SDS011;38816;51.142;-0.974;2023-05-29T07:11:16;17.10;;;14.85;;
51438;SDS011;38816;51.142;-0.974;2023-05-29T07:13:41;16.88;;;14.13;;
51438;SDS011;38816;51.142;-0.974;2023-05-29T07:16:07;14.73;;;13.35;;
51438;SDS011;38816;51.142;-0.974;2023-05-29T07:18:32;17.58;;;13.20;;
51438;SDS011;38816;51.142;-0.974;2023-05-29T07:20:59;16.27;;;13.32;;
51438;SDS011;38816;51.142;-0.974;2023-05-29T07:23:25;16.13;;;13.40;;
51438;SDS011;38816;51.142;-0.974;2023-05-29T07:25:51;13.93;;;12.27;;
51438;SDS011;38816;51.142;-0.974;2023-05-29T07:28:16;16.30;;;11.70;;
51438;SDS011;38816;51.142;-0.974;2023-05-29T07:30:41;19.83;;;12.52;;
51438;SDS011;38816;51.142;-0.974;2023-05-29T07:33:07;12.60;;;11.30;;
51438;SDS011;38816;51.142;-0.974;2023-05-29T07:35:32;13.55;;;11.23;;
51438;SDS011;38816;51.142;-0.974;2023-05-29T07:37:58;12.85;;;11.10;;
51438;SDS011;38816;51.142;-0.974;2023-05-29T07:40:24;13.63;;;11.18;;
51438;SDS011;38816;51.142;-0.974;2023-05-29T07:42:50;15.75;;;11.18;;
51438;SDS011;38816;51.142;-0.974;2023-05-29T07:45:15;12.95;;;10.05;;
51438;SDS011;38816;51.142;-0.974;2023-05-29T07:47:41;15.95;;;10.80;;
51438;SDS011;38816;51.142;-0.974;2023-05-29T07:50:07;15.68;;;10.93;;
51438;SDS011;38816;51.142;-0.974;2023-05-29T07:52:33;16.83;;;10.95;;
51438;SDS011;38816;51.142;-0.974;2023-05-29T07:54:58;14.32;;;10.32;;
51438;SDS011;38816;51.142;-0.974;2023-05-29T07:57:24;14.02;;;10.43;;
51438;SDS011;38816;51.142;-0.974;2023-05-29T07:59:50;14.43;;;10.55;;
51438;SDS011;38816;51.142;-0.974;2023-05-29T08:02:15;12.88;;;9.77;;
51438;SDS011;38816;51.142;-0.974;2023-05-29T08:04:41;13.50;;;10.90;;
51438;SDS011;38816;51.142;-0.974;2023-05-29T08:07:07;13.73;;;10.38;;
51438;SDS011;38816;51.142;-0.974;2023-05-29T08:09:33;12.23;;;10.27;;
51438;SDS011;38816;51.142;-0.974;2023-05-29T08:12:00;14.88;;;10.35;;
51438;SDS011;38816;51.142;-0.974;2023-05-29T08:14:26;11.93;;;9.30;;
51438;SDS011;38816;51.142;-0.974;2023-05-29T08:16:51;11.18;;;9.32;;
51438;SDS011;38816;51.142;-0.974;2023-05-29T08:19:17;15.45;;;10.13;;
51438;SDS011;38816;51.142;-0.974;2023-05-29T08:21:42;14.45;;;9.45;;
51438;SDS011;38816;51.142;-0.974;2023-05-29T08:24:08;14.23;;;10.15;;
51438;SDS011;38816;51.142;-0.974;2023-05-29T08:26:34;14.63;;;10.38;;
51438;SDS011;38816;51.142;-0.974;2023-05-29T08:29:00;12.65;;;9.68;;
51438;SDS011;38816;51.142;-0.974;2023-05-29T08:31:25;12.05;;;10.77;;
51438;SDS011;38816;51.142;-0.974;2023-05-29T08:33:51;14.05;;;9.45;;
51438;SDS011;38816;51.142;-0.974;2023-05-29T08:36:17;11.77;;;10.18;;
51438;SDS011;38816;51.142;-0.974;2023-05-29T08:38:46;16.67;;;10.70;;
51438;SDS011;38816;51.142;-0.974;2023-05-29T08:41:13;10.80;;;9.80;;
51438;SDS011;38816;51.142;-0.974;2023-05-29T08:43:45;13.20;;;11.57;;
51438;SDS011;38816;51.142;-0.974;2023-05-29T08:46:13;13.82;;;10.77;;
51438;SDS011;38816;51.142;-0.974;2023-05-29T08:48:40;15.32;;;10.65;;
51438;SDS011;38816;51.142;-0.974;2023-05-29T08:51:07;13.98;;;10.05;;
51438;SDS011;38816;51.142;-0.974;2023-05-29T08:53:35;14.85;;;10.93;;
51438;SDS011;38816;51.142;-0.974;2023-05-29T08:56:01;14.77;;;11.70;;
51438;SDS011;38816;51.142;-0.974;2023-05-29T08:58:27;15.77;;;11.40;;
51438;SDS011;38816;51.142;-0.974;2023-05-29T09:00:52;14.98;;;10.38;;
51438;SDS011;38816;51.142;-0.974;2023-05-29T09:03:18;15.52;;;12.02;;
51438;SDS011;38816;51.142;-0.974;2023-05-29T09:05:45;13.98;;;11.48;;
51438;SDS011;38816;51.142;-0.974;2023-05-29T09:08:11;12.73;;;11.55;;
51438;SDS011;38816;51.142;-0.974;2023-05-29T09:10:43;13.32;;;11.82;;
51438;SDS011;38816;51.142;-0.974;2023-05-29T09:13:10;18.63;;;11.70;;
51438;SDS011;38816;51.142;-0.974;2023-05-29T09:15:36;21.80;;;11.52;;
51438;SDS011;38816;51.142;-0.974;2023-05-29T09:18:05;13.88;;;10.63;;
51438;SDS011;38816;51.142;-0.974;2023-05-29T09:20:30;16.55;;;12.57;;
51438;SDS011;38816;51.142;-0.974;2023-05-29T09:22:56;16.88;;;12.57;;
51438;SDS011;38816;51.142;-0.974;2023-05-29T09:25:23;14.25;;;12.43;;
51438;SDS011;38816;51.142;-0.974;2023-05-29T09:32:58;15.57;;;13.15;;
51438;SDS011;38816;51.142;-0.974;2023-05-29T09:35:25;18.73;;;13.27;;
51438;SDS011;38816;51.142;-0.974;2023-05-29T09:37:52;15.32;;;13.45;;
51438;SDS011;38816;51.142;-0.974;2023-05-29T09:40:17;14.68;;;13.25;;
51438;SDS011;38816;51.142;-0.974;2023-05-29T09:42:43;15.35;;;13.77;;
51438;SDS011;38816;51.142;-0.974;2023-05-29T09:45:08;16.63;;;14.07;;
51438;SDS011;38816;51.142;-0.974;2023-05-29T09:47:34;21.10;;;13.85;;
51438;SDS011;38816;51.142;-0.974;2023-05-29T09:50:00;14.23;;;12.98;;
51438;SDS011;38816;51.142;-0.974;2023-05-29T09:52:26;16.73;;;14.13;;
51438;SDS011;38816;51.142;-0.974;2023-05-29T09:54:55;20.65;;;14.20;;
51438;SDS011;38816;51.142;-0.974;2023-05-29T09:57:21;16.45;;;14.95;;
51438;SDS011;38816;51.142;-0.974;2023-05-29T09:59:49;15.25;;;14.05;;
51438;SDS011;38816;51.142;-0.974;2023-05-29T10:02:17;16.30;;;14.80;;
51438;SDS011;38816;51.142;-0.974;2023-05-29T10:04:43;15.35;;;13.95;;
51438;SDS011;38816;51.142;-0.974;2023-05-29T10:09:50;17.23;;;15.63;;
51438;SDS011;38816;51.142;-0.974;2023-05-29T10:12:20;15.95;;;14.55;;
51438;SDS011;38816;51.142;-0.974;2023-05-29T10:14:48;15.77;;;14.23;;
51438;SDS011;38816;51.142;-0.974;2023-05-29T10:17:15;15.23;;;13.80;;
51438;SDS011;38816;51.142;-0.974;2023-05-29T10:19:43;15.23;;;13.82;;
51438;SDS011;38816;51.142;-0.974;2023-05-29T10:22:12;17.63;;;16.13;;
51438;SDS011;38816;51.142;-0.974;2023-05-29T10:24:38;16.15;;;14.63;;
51438;SDS011;38816;51.142;-0.974;2023-05-29T10:27:05;19.17;;;17.45;;
51438;SDS011;38816;51.142;-0.974;2023-05-29T10:29:42;21.70;;;16.63;;
51438;SDS011;38816;51.142;-0.974;2023-05-29T10:35:27;18.40;;;16.80;;
51438;SDS011;38816;51.142;-0.974;2023-05-29T10:38:16;19.42;;;17.63;;
51438;SDS011;38816;51.142;-0.974;2023-05-29T10:40:43;18.60;;;16.75;;
51438;SDS011;38816;51.142;-0.974;2023-05-29T10:43:16;18.77;;;16.98;;
51438;SDS011;38816;51.142;-0.974;2023-05-29T10:45:57;18.98;;;17.13;;
51438;SDS011;38816;51.142;-0.974;2023-05-29T10:50:54;20.92;;;19.17;;
51438;SDS011;38816;51.142;-0.974;2023-05-29T10:53:27;20.67;;;18.92;;
51438;SDS011;38816;51.142;-0.974;2023-05-29T10:55:56;19.90;;;17.80;;
51438;SDS011;38816;51.142;-0.974;2023-05-29T10:58:24;19.30;;;17.42;;
51438;SDS011;38816;51.142;-0.974;2023-05-29T11:00:52;20.13;;;18.50;;
51438;SDS011;38816;51.142;-0.974;2023-05-29T11:03:22;19.48;;;17.80;;
51438;SDS011;38816;51.142;-0.974;2023-05-29T11:11:00;20.48;;;18.70;;
51438;SDS011;38816;51.142;-0.974;2023-05-29T11:13:27;20.23;;;18.45;;
51438;SDS011;38816;51.142;-0.974;2023-05-29T11:18:45;21.02;;;19.05;;
51438;SDS011;38816;51.142;-0.974;2023-05-29T11:22:02;19.80;;;17.90;;
51438;SDS011;38816;51.142;-0.974;2023-05-29T11:24:08;21.23;;;19.40;;
51438;SDS011;38816;51.142;-0.974;2023-05-29T11:26:45;22.08;;;20.23;;
51438;SDS011;38816;51.142;-0.974;2023-05-29T11:29:12;19.77;;;18.17;;
51438;SDS011;38816;51.142;-0.974;2023-05-29T11:31:39;24.25;;;20.77;;
51438;SDS011;38816;51.142;-0.974;2023-05-29T11:34:05;23.73;;;21.40;;
51438;SDS011;38816;51.142;-0.974;2023-05-29T11:36:35;23.85;;;21.73;;
51438;SDS011;38816;51.142;-0.974;2023-05-29T11:39:02;23.05;;;20.92;;
51438;SDS011;38816;51.142;-0.974;2023-05-29T11:41:28;25.15;;;22.75;;
51438;SDS011;38816;51.142;-0.974;2023-05-29T11:44:01;24.75;;;22.35;;
51438;SDS011;38816;51.142;-0.974;2023-05-29T11:46:29;22.63;;;20.42;;
51438;SDS011;38816;51.142;-0.974;2023-05-29T11:49:00;23.00;;;20.50;;
51438;SDS011;38816;51.142;-0.974;2023-05-29T11:51:26;21.65;;;19.77;;
51438;SDS011;38816;51.142;-0.974;2023-05-29T11:53:52;22.02;;;19.95;;
51438;SDS011;38816;51.142;-0.974;2023-05-29T11:56:24;23.55;;;20.52;;
51438;SDS011;38816;51.142;-0.974;2023-05-29T11:58:53;22.40;;;20.45;;
51438;SDS011;38816;51.142;-0.974;2023-05-29T12:01:24;21.33;;;19.38;;
51438;SDS011;38816;51.142;-0.974;2023-05-29T12:03:50;23.17;;;21.38;;
51438;SDS011;38816;51.142;-0.974;2023-05-29T12:06:16;23.27;;;20.95;;
51438;SDS011;38816;51.142;-0.974;2023-05-29T12:08:57;23.92;;;21.80;;
51438;SDS011;38816;51.142;-0.974;2023-05-29T12:11:25;22.55;;;20.80;;
51438;SDS011;38816;51.142;-0.974;2023-05-29T12:13:57;21.40;;;19.48;;
51438;SDS011;38816;51.142;-0.974;2023-05-29T12:16:24;22.75;;;20.75;;
51438;SDS011;38816;51.142;-0.974;2023-05-29T12:18:51;23.00;;;20.73;;
51438;SDS011;38816;51.142;-0.974;2023-05-29T12:21:17;23.70;;;21.50;;
51438;SDS011;38816;51.142;-0.974;2023-05-29T12:23:45;23.33;;;19.70;;
51438;SDS011;38816;51.142;-0.974;2023-05-29T12:26:10;24.50;;;22.40;;
51438;SDS011;38816;51.142;-0.974;2023-05-29T12:28:41;23.65;;;21.30;;
51438;SDS011;38816;51.142;-0.974;2023-05-29T12:31:08;23.73;;;21.70;;
51438;SDS011;38816;51.142;-0.974;2023-05-29T12:33:34;23.23;;;21.30;;
51438;SDS011;38816;51.142;-0.974;2023-05-29T12:36:06;22.48;;;20.60;;
51438;SDS011;38816;51.142;-0.974;2023-05-29T12:38:49;21.77;;;19.58;;
51438;SDS011;38816;51.142;-0.974;2023-05-29T12:41:26;21.83;;;19.80;;
51438;SDS011;38816;51.142;-0.974;2023-05-29T12:43:58;23.48;;;21.27;;
51438;SDS011;38816;51.142;-0.974;2023-05-29T12:46:26;23.42;;;21.25;;
51438;SDS011;38816;51.142;-0.974;2023-05-29T12:48:55;21.65;;;19.65;;
51438;SDS011;38816;51.142;-0.974;2023-05-29T12:51:27;24.60;;;21.13;;
51438;SDS011;38816;51.142;-0.974;2023-05-29T12:53:53;23.65;;;21.65;;
51438;SDS011;38816;51.142;-0.974;2023-05-29T12:56:21;24.77;;;22.55;;
51438;SDS011;38816;51.142;-0.974;2023-05-29T12:58:48;24.98;;;22.92;;
51438;SDS011;38816;51.142;-0.974;2023-05-29T13:01:14;26.50;;;24.17;;
51438;SDS011;38816;51.142;-0.974;2023-05-29T13:03:40;25.60;;;23.20;;
51438;SDS011;38816;51.142;-0.974;2023-05-29T13:06:06;26.15;;;23.67;;
51438;SDS011;38816;51.142;-0.974;2023-05-29T13:08:32;23.90;;;21.02;;
51438;SDS011;38816;51.142;-0.974;2023-05-29T13:10:57;25.50;;;23.15;;
51438;SDS011;38816;51.142;-0.974;2023-05-29T13:13:22;25.63;;;23.40;;
51438;SDS011;38816;51.142;-0.974;2023-05-29T13:15:48;24.35;;;21.95;;
51438;SDS011;38816;51.142;-0.974;2023-05-29T13:18:13;26.88;;;24.58;;
51438;SDS011;38816;51.142;-0.974;2023-05-29T13:20:39;23.67;;;21.42;;
51438;SDS011;38816;51.142;-0.974;2023-05-29T13:23:05;26.45;;;24.17;;
51438;SDS011;38816;51.142;-0.974;2023-05-29T13:25:30;25.77;;;23.30;;
51438;SDS011;38816;51.142;-0.974;2023-05-29T13:27:56;28.65;;;25.67;;
51438;SDS011;38816;51.142;-0.974;2023-05-29T13:30:21;25.58;;;23.27;;
51438;SDS011;38816;51.142;-0.974;2023-05-29T13:32:47;26.75;;;22.98;;
51438;SDS011;38816;51.142;-0.974;2023-05-29T13:35:12;26.75;;;24.23;;
51438;SDS011;38816;51.142;-0.974;2023-05-29T13:37:38;26.73;;;24.25;;
51438;SDS011;38816;51.142;-0.974;2023-05-29T13:40:05;26.58;;;23.85;;
51438;SDS011;38816;51.142;-0.974;2023-05-29T13:42:34;27.42;;;24.85;;
51438;SDS011;38816;51.142;-0.974;2023-05-29T13:44:59;24.45;;;22.40;;
51438;SDS011;38816;51.142;-0.974;2023-05-29T13:47:25;27.83;;;25.30;;
51438;SDS011;38816;51.142;-0.974;2023-05-29T13:49:53;26.85;;;24.48;;
51438;SDS011;38816;51.142;-0.974;2023-05-29T13:52:19;27.88;;;25.58;;
51438;SDS011;38816;51.142;-0.974;2023-05-29T13:54:44;27.98;;;25.67;;
51438;SDS011;38816;51.142;-0.974;2023-05-29T13:57:10;26.98;;;24.25;;
51438;SDS011;38816;51.142;-0.974;2023-05-29T13:59:35;25.48;;;23.23;;
51438;SDS011;38816;51.142;-0.974;2023-05-29T14:02:01;27.20;;;24.88;;
51438;SDS011;38816;51.142;-0.974;2023-05-29T14:04:31;28.48;;;25.50;;
51438;SDS011;38816;51.142;-0.974;2023-05-29T14:06:56;28.05;;;25.65;;
51438;SDS011;38816;51.142;-0.974;2023-05-29T14:09:22;29.88;;;26.95;;
51438;SDS011;38816;51.142;-0.974;2023-05-29T14:11:53;27.33;;;24.90;;
51438;SDS011;38816;51.142;-0.974;2023-05-29T14:14:22;27.45;;;25.00;;
51438;SDS011;38816;51.142;-0.974;2023-05-29T14:16:48;27.88;;;25.27;;
51438;SDS011;38816;51.142;-0.974;2023-05-29T14:19:14;29.63;;;26.77;;
51438;SDS011;38816;51.142;-0.974;2023-05-29T14:21:40;29.02;;;26.27;;
51438;SDS011;38816;51.142;-0.974;2023-05-29T14:24:05;29.23;;;26.50;;
51438;SDS011;38816;51.142;-0.974;2023-05-29T14:26:32;27.45;;;24.45;;
51438;SDS011;38816;51.142;-0.974;2023-05-29T14:28:58;29.17;;;26.08;;
51438;SDS011;38816;51.142;-0.974;2023-05-29T14:31:23;26.08;;;23.70;;
51438;SDS011;38816;51.142;-0.974;2023-05-29T14:33:48;27.17;;;24.48;;
51438;SDS011;38816;51.142;-0.974;2023-05-29T14:36:14;24.23;;;21.80;;
51438;SDS011;38816;51.142;-0.974;2023-05-29T14:38:39;27.52;;;24.95;;